sensor_id;sensor_type;location;lat;lon;timestamp;P1;durP1;ratioP1;P2;durP2;ratioP2
3997;SDS011;61314;53.444;9.902;2023-07-13T00:02:16;2.87;;;1.90;;
3997;SDS011;61314;53.444;9.902;2023-07-13T00:04:43;2.50;;;2.30;;
3997;SDS011;61314;53.444;9.902;2023-07-13T00:07:10;12.70;;;2.73;;
3997;SDS011;61314;53.444;9.902;2023-07-13T00:09:40;3.93;;;2.40;;
3997;SDS011;61314;53.444;9.902;2023-07-13T00:12:21;4.83;;;2.33;;
3997;SDS011;61314;53.444;9.902;2023-07-13T00:14:48;10.03;;;2.63;;
3997;SDS011;61314;53.444;9.902;2023-07-13T00:17:16;3.30;;;2.13;;
3997;SDS011;61314;53.444;9.902;2023-07-13T00:19:43;6.50;;;2.40;;
3997;SDS011;61314;53.444;9.902;2023-07-13T00:22:10;2.47;;;2.00;;
3997;SDS011;61314;53.444;9.902;2023-07-13T00:24:37;2.80;;;2.47;;
3997;SDS011;61314;53.444;9.902;2023-07-13T00:27:08;2.60;;;2.40;;
3997;SDS011;61314;53.444;9.902;2023-07-13T00:29:36;3.63;;;3.00;;
3997;SDS011;61314;53.444;9.902;2023-07-13T00:32:04;3.97;;;3.00;;
3997;SDS011;61314;53.444;9.902;2023-07-13T00:34:31;2.93;;;2.73;;
3997;SDS011;61314;53.444;9.902;2023-07-13T00:36:58;3.97;;;3.33;;
3997;SDS011;61314;53.444;9.902;2023-07-13T00:39:26;3.57;;;2.90;;
3997;SDS011;61314;53.444;9.902;2023-07-13T00:41:53;9.23;;;3.80;;
3997;SDS011;61314;53.444;9.902;2023-07-13T00:44:20;4.60;;;2.87;;
3997;SDS011;61314;53.444;9.902;2023-07-13T00:46:50;7.33;;;3.97;;
3997;SDS011;61314;53.444;9.902;2023-07-13T00:49:18;5.53;;;3.10;;
3997;SDS011;61314;53.444;9.902;2023-07-13T00:51:51;4.70;;;3.70;;
3997;SDS011;61314;53.444;9.902;2023-07-13T00:54:21;6.67;;;3.03;;
3997;SDS011;61314;53.444;9.902;2023-07-13T00:56:50;5.47;;;3.50;;
3997;SDS011;61314;53.444;9.902;2023-07-13T00:59:17;7.90;;;3.70;;
3997;SDS011;61314;53.444;9.902;2023-07-13T01:01:45;4.33;;;3.20;;
3997;SDS011;61314;53.444;9.902;2023-07-13T01:04:13;3.97;;;3.30;;
3997;SDS011;61314;53.444;9.902;2023-07-13T01:06:40;3.73;;;3.10;;
3997;SDS011;61314;53.444;9.902;2023-07-13T01:09:10;5.10;;;3.83;;
3997;SDS011;61314;53.444;9.902;2023-07-13T01:11:38;6.40;;;3.60;;
3997;SDS011;61314;53.444;9.902;2023-07-13T01:14:05;6.37;;;4.30;;
3997;SDS011;61314;53.444;9.902;2023-07-13T01:16:33;4.43;;;3.27;;
3997;SDS011;61314;53.444;9.902;2023-07-13T01:19:00;5.67;;;3.47;;
3997;SDS011;61314;53.444;9.902;2023-07-13T01:21:28;3.43;;;3.23;;
3997;SDS011;61314;53.444;9.902;2023-07-13T01:23:56;4.00;;;3.10;;
3997;SDS011;61314;53.444;9.902;2023-07-13T01:26:23;5.30;;;4.17;;
3997;SDS011;61314;53.444;9.902;2023-07-13T01:28:50;5.30;;;3.73;;
3997;SDS011;61314;53.444;9.902;2023-07-13T01:31:18;6.40;;;4.33;;
3997;SDS011;61314;53.444;9.902;2023-07-13T01:33:45;4.97;;;3.83;;
3997;SDS011;61314;53.444;9.902;2023-07-13T01:36:12;3.67;;;3.33;;
3997;SDS011;61314;53.444;9.902;2023-07-13T01:38:39;5.57;;;4.07;;
3997;SDS011;61314;53.444;9.902;2023-07-13T01:41:10;6.90;;;4.17;;
3997;SDS011;61314;53.444;9.902;2023-07-13T01:43:37;5.40;;;3.83;;
3997;SDS011;61314;53.444;9.902;2023-07-13T01:46:04;5.30;;;4.60;;
3997;SDS011;61314;53.444;9.902;2023-07-13T01:48:48;4.30;;;4.00;;
3997;SDS011;61314;53.444;9.902;2023-07-13T01:51:15;4.33;;;3.93;;
3997;SDS011;61314;53.444;9.902;2023-07-13T01:53:42;5.20;;;4.70;;
3997;SDS011;61314;53.444;9.902;2023-07-13T01:56:09;8.27;;;5.30;;
3997;SDS011;61314;53.444;9.902;2023-07-13T01:58:37;4.90;;;4.40;;
3997;SDS011;61314;53.444;9.902;2023-07-13T02:01:04;4.67;;;4.37;;
3997;SDS011;61314;53.444;9.902;2023-07-13T02:03:31;5.40;;;4.77;;
3997;SDS011;61314;53.444;9.902;2023-07-13T02:05:58;9.57;;;5.00;;
3997;SDS011;61314;53.444;9.902;2023-07-13T02:08:26;5.17;;;4.67;;
3997;SDS011;61314;53.444;9.902;2023-07-13T02:10:53;5.07;;;4.67;;
3997;SDS011;61314;53.444;9.902;2023-07-13T02:13:20;5.13;;;4.73;;
3997;SDS011;61314;53.444;9.902;2023-07-13T02:15:49;5.03;;;4.50;;
3997;SDS011;61314;53.444;9.902;2023-07-13T02:18:16;7.40;;;4.90;;
3997;SDS011;61314;53.444;9.902;2023-07-13T02:20:44;5.50;;;5.00;;
3997;SDS011;61314;53.444;9.902;2023-07-13T02:23:11;6.53;;;4.37;;
3997;SDS011;61314;53.444;9.902;2023-07-13T02:25:38;4.73;;;4.33;;
3997;SDS011;61314;53.444;9.902;2023-07-13T02:28:05;5.20;;;4.80;;
3997;SDS011;61314;53.444;9.902;2023-07-13T02:30:33;4.93;;;4.60;;
3997;SDS011;61314;53.444;9.902;2023-07-13T02:33:00;5.53;;;5.03;;
3997;SDS011;61314;53.444;9.902;2023-07-13T02:35:28;6.93;;;5.00;;
3997;SDS011;61314;53.444;9.902;2023-07-13T02:37:56;6.47;;;4.57;;
3997;SDS011;61314;53.444;9.902;2023-07-13T02:40:23;11.97;;;5.10;;
3997;SDS011;61314;53.444;9.902;2023-07-13T02:42:50;5.37;;;4.43;;
3997;SDS011;61314;53.444;9.902;2023-07-13T02:45:17;4.90;;;4.50;;
3997;SDS011;61314;53.444;9.902;2023-07-13T02:47:44;7.90;;;5.10;;
3997;SDS011;61314;53.444;9.902;2023-07-13T02:50:12;5.20;;;4.70;;
3997;SDS011;61314;53.444;9.902;2023-07-13T02:52:39;4.70;;;4.30;;
3997;SDS011;61314;53.444;9.902;2023-07-13T02:55:06;6.17;;;5.00;;
3997;SDS011;61314;53.444;9.902;2023-07-13T02:57:33;4.73;;;4.30;;
3997;SDS011;61314;53.444;9.902;2023-07-13T03:00:00;4.03;;;3.73;;
3997;SDS011;61314;53.444;9.902;2023-07-13T03:02:31;4.77;;;4.10;;
3997;SDS011;61314;53.444;9.902;2023-07-13T03:04:59;9.07;;;4.53;;
3997;SDS011;61314;53.444;9.902;2023-07-13T03:07:26;12.73;;;5.10;;
3997;SDS011;61314;53.444;9.902;2023-07-13T03:09:53;5.13;;;4.63;;
3997;SDS011;61314;53.444;9.902;2023-07-13T03:12:21;5.77;;;4.00;;
3997;SDS011;61314;53.444;9.902;2023-07-13T03:14:48;4.47;;;3.80;;
3997;SDS011;61314;53.444;9.902;2023-07-13T03:17:16;4.70;;;4.33;;
3997;SDS011;61314;53.444;9.902;2023-07-13T03:19:43;4.67;;;4.07;;
3997;SDS011;61314;53.444;9.902;2023-07-13T03:22:10;10.17;;;5.33;;
3997;SDS011;61314;53.444;9.902;2023-07-13T03:24:37;5.03;;;4.53;;
3997;SDS011;61314;53.444;9.902;2023-07-13T03:27:05;4.97;;;4.63;;
3997;SDS011;61314;53.444;9.902;2023-07-13T03:29:32;8.30;;;4.13;;
3997;SDS011;61314;53.444;9.902;2023-07-13T03:31:59;8.50;;;4.70;;
3997;SDS011;61314;53.444;9.902;2023-07-13T03:34:27;7.77;;;3.90;;
3997;SDS011;61314;53.444;9.902;2023-07-13T03:36:54;4.40;;;4.07;;
3997;SDS011;61314;53.444;9.902;2023-07-13T03:39:21;4.83;;;3.40;;
3997;SDS011;61314;53.444;9.902;2023-07-13T03:41:48;4.77;;;3.70;;
3997;SDS011;61314;53.444;9.902;2023-07-13T03:44:16;4.77;;;3.50;;
3997;SDS011;61314;53.444;9.902;2023-07-13T03:46:44;4.27;;;3.97;;
3997;SDS011;61314;53.444;9.902;2023-07-13T03:49:11;12.63;;;4.80;;
3997;SDS011;61314;53.444;9.902;2023-07-13T03:51:38;12.23;;;4.50;;
3997;SDS011;61314;53.444;9.902;2023-07-13T03:54:05;4.33;;;3.93;;
3997;SDS011;61314;53.444;9.902;2023-07-13T03:56:32;9.40;;;5.83;;
3997;SDS011;61314;53.444;9.902;2023-07-13T03:58:59;7.10;;;4.87;;
3997;SDS011;61314;53.444;9.902;2023-07-13T04:01:26;10.27;;;5.07;;
3997;SDS011;61314;53.444;9.902;2023-07-13T04:03:54;4.77;;;4.30;;
3997;SDS011;61314;53.444;9.902;2023-07-13T04:06:28;10.30;;;5.20;;
3997;SDS011;61314;53.444;9.902;2023-07-13T04:08:56;6.57;;;4.43;;
3997;SDS011;61314;53.444;9.902;2023-07-13T04:11:25;7.60;;;5.10;;
3997;SDS011;61314;53.444;9.902;2023-07-13T04:13:53;5.30;;;4.80;;
3997;SDS011;61314;53.444;9.902;2023-07-13T04:16:20;8.73;;;4.63;;
3997;SDS011;61314;53.444;9.902;2023-07-13T04:18:47;7.50;;;4.60;;
3997;SDS011;61314;53.444;9.902;2023-07-13T04:21:15;6.00;;;4.30;;
3997;SDS011;61314;53.444;9.902;2023-07-13T04:23:42;6.43;;;5.30;;
3997;SDS011;61314;53.444;9.902;2023-07-13T04:26:09;12.80;;;4.80;;
3997;SDS011;61314;53.444;9.902;2023-07-13T04:28:37;11.97;;;5.13;;
3997;SDS011;61314;53.444;9.902;2023-07-13T04:31:04;7.27;;;4.57;;
3997;SDS011;61314;53.444;9.902;2023-07-13T04:33:31;8.43;;;5.73;;
3997;SDS011;61314;53.444;9.902;2023-07-13T04:35:58;11.43;;;5.23;;
3997;SDS011;61314;53.444;9.902;2023-07-13T04:38:28;6.33;;;4.93;;
3997;SDS011;61314;53.444;9.902;2023-07-13T04:40:56;5.50;;;5.00;;
3997;SDS011;61314;53.444;9.902;2023-07-13T04:43:24;8.50;;;4.77;;
3997;SDS011;61314;53.444;9.902;2023-07-13T04:45:51;5.97;;;5.37;;
3997;SDS011;61314;53.444;9.902;2023-07-13T04:48:19;8.07;;;5.47;;
3997;SDS011;61314;53.444;9.902;2023-07-13T04:50:46;6.73;;;5.57;;
3997;SDS011;61314;53.444;9.902;2023-07-13T04:53:14;8.43;;;6.17;;
3997;SDS011;61314;53.444;9.902;2023-07-13T04:55:41;7.83;;;5.83;;
3997;SDS011;61314;53.444;9.902;2023-07-13T04:58:08;5.70;;;5.20;;
3997;SDS011;61314;53.444;9.902;2023-07-13T05:00:35;9.83;;;6.70;;
3997;SDS011;61314;53.444;9.902;2023-07-13T05:03:03;9.30;;;5.33;;
3997;SDS011;61314;53.444;9.902;2023-07-13T05:05:30;8.00;;;5.37;;
3997;SDS011;61314;53.444;9.902;2023-07-13T05:07:58;10.60;;;5.63;;
3997;SDS011;61314;53.444;9.902;2023-07-13T05:10:25;14.90;;;6.03;;
3997;SDS011;61314;53.444;9.902;2023-07-13T05:12:52;13.53;;;6.17;;
3997;SDS011;61314;53.444;9.902;2023-07-13T05:15:21;15.33;;;5.90;;
3997;SDS011;61314;53.444;9.902;2023-07-13T05:17:48;12.17;;;6.10;;
3997;SDS011;61314;53.444;9.902;2023-07-13T05:20:16;18.60;;;5.97;;
3997;SDS011;61314;53.444;9.902;2023-07-13T05:22:43;9.30;;;5.63;;
3997;SDS011;61314;53.444;9.902;2023-07-13T05:25:13;13.13;;;5.97;;
3997;SDS011;61314;53.444;9.902;2023-07-13T05:27:40;8.33;;;5.47;;
3997;SDS011;61314;53.444;9.902;2023-07-13T05:30:07;15.77;;;6.80;;
3997;SDS011;61314;53.444;9.902;2023-07-13T05:32:37;13.63;;;6.00;;
3997;SDS011;61314;53.444;9.902;2023-07-13T05:35:04;11.67;;;5.30;;
3997;SDS011;61314;53.444;9.902;2023-07-13T05:37:56;14.87;;;5.67;;
3997;SDS011;61314;53.444;9.902;2023-07-13T05:40:24;13.33;;;6.50;;
3997;SDS011;61314;53.444;9.902;2023-07-13T05:42:51;10.53;;;5.10;;
3997;SDS011;61314;53.444;9.902;2023-07-13T05:45:18;16.83;;;6.60;;
3997;SDS011;61314;53.444;9.902;2023-07-13T05:47:45;12.20;;;5.90;;
3997;SDS011;61314;53.444;9.902;2023-07-13T05:50:12;14.57;;;5.40;;
3997;SDS011;61314;53.444;9.902;2023-07-13T05:52:39;13.30;;;5.77;;
3997;SDS011;61314;53.444;9.902;2023-07-13T05:55:06;15.30;;;6.30;;
3997;SDS011;61314;53.444;9.902;2023-07-13T05:57:33;10.10;;;5.67;;
3997;SDS011;61314;53.444;9.902;2023-07-13T06:00:00;13.70;;;6.70;;
3997;SDS011;61314;53.444;9.902;2023-07-13T06:02:28;12.50;;;5.50;;
3997;SDS011;61314;53.444;9.902;2023-07-13T06:04:55;11.83;;;6.13;;
3997;SDS011;61314;53.444;9.902;2023-07-13T06:07:22;9.17;;;6.27;;
3997;SDS011;61314;53.444;9.902;2023-07-13T06:09:49;9.03;;;5.40;;
3997;SDS011;61314;53.444;9.902;2023-07-13T06:12:17;14.13;;;5.03;;
3997;SDS011;61314;53.444;9.902;2023-07-13T06:14:44;15.90;;;6.40;;
3997;SDS011;61314;53.444;9.902;2023-07-13T06:17:11;11.07;;;5.93;;
3997;SDS011;61314;53.444;9.902;2023-07-13T06:19:38;11.23;;;4.83;;
3997;SDS011;61314;53.444;9.902;2023-07-13T06:22:05;15.53;;;5.77;;
3997;SDS011;61314;53.444;9.902;2023-07-13T06:24:32;12.80;;;5.67;;
3997;SDS011;61314;53.444;9.902;2023-07-13T06:27:00;12.30;;;4.90;;
3997;SDS011;61314;53.444;9.902;2023-07-13T06:29:27;15.10;;;5.60;;
3997;SDS011;61314;53.444;9.902;2023-07-13T06:31:54;13.50;;;5.50;;
3997;SDS011;61314;53.444;9.902;2023-07-13T06:34:21;19.60;;;5.03;;
3997;SDS011;61314;53.444;9.902;2023-07-13T06:36:48;10.00;;;4.73;;
3997;SDS011;61314;53.444;9.902;2023-07-13T06:39:15;13.80;;;6.37;;
3997;SDS011;61314;53.444;9.902;2023-07-13T06:41:42;7.50;;;4.70;;
3997;SDS011;61314;53.444;9.902;2023-07-13T06:44:09;15.37;;;4.60;;
3997;SDS011;61314;53.444;9.902;2023-07-13T06:46:37;11.07;;;4.50;;
3997;SDS011;61314;53.444;9.902;2023-07-13T06:49:04;14.63;;;4.90;;
3997;SDS011;61314;53.444;9.902;2023-07-13T06:51:31;7.73;;;4.40;;
3997;SDS011;61314;53.444;9.902;2023-07-13T06:53:58;7.80;;;4.23;;
3997;SDS011;61314;53.444;9.902;2023-07-13T06:56:25;14.90;;;5.30;;
3997;SDS011;61314;53.444;9.902;2023-07-13T06:58:52;10.30;;;5.77;;
3997;SDS011;61314;53.444;9.902;2023-07-13T07:01:19;7.57;;;4.37;;
3997;SDS011;61314;53.444;9.902;2023-07-13T07:03:46;11.47;;;4.87;;
3997;SDS011;61314;53.444;9.902;2023-07-13T07:06:16;22.03;;;5.10;;
3997;SDS011;61314;53.444;9.902;2023-07-13T07:08:43;6.80;;;4.67;;
3997;SDS011;61314;53.444;9.902;2023-07-13T07:11:12;17.30;;;5.87;;
3997;SDS011;61314;53.444;9.902;2023-07-13T07:13:39;15.57;;;4.80;;
3997;SDS011;61314;53.444;9.902;2023-07-13T07:16:06;21.40;;;4.73;;
3997;SDS011;61314;53.444;9.902;2023-07-13T07:18:35;13.33;;;4.80;;
3997;SDS011;61314;53.444;9.902;2023-07-13T07:21:02;7.83;;;4.47;;
3997;SDS011;61314;53.444;9.902;2023-07-13T07:23:29;8.83;;;4.70;;
3997;SDS011;61314;53.444;9.902;2023-07-13T07:25:56;12.13;;;4.33;;
3997;SDS011;61314;53.444;9.902;2023-07-13T07:28:23;9.50;;;4.33;;
3997;SDS011;61314;53.444;9.902;2023-07-13T07:30:53;15.40;;;5.20;;
3997;SDS011;61314;53.444;9.902;2023-07-13T07:33:40;11.90;;;5.10;;
3997;SDS011;61314;53.444;9.902;2023-07-13T07:36:07;19.83;;;4.73;;
3997;SDS011;61314;53.444;9.902;2023-07-13T07:38:37;9.73;;;4.10;;
3997;SDS011;61314;53.444;9.902;2023-07-13T07:41:04;21.70;;;4.10;;
3997;SDS011;61314;53.444;9.902;2023-07-13T07:43:35;9.13;;;4.57;;
3997;SDS011;61314;53.444;9.902;2023-07-13T07:46:02;10.90;;;4.00;;
3997;SDS011;61314;53.444;9.902;2023-07-13T07:48:30;15.10;;;4.43;;
3997;SDS011;61314;53.444;9.902;2023-07-13T07:50:57;16.73;;;4.57;;
3997;SDS011;61314;53.444;9.902;2023-07-13T07:53:24;8.90;;;3.90;;
3997;SDS011;61314;53.444;9.902;2023-07-13T07:55:52;11.77;;;4.13;;
3997;SDS011;61314;53.444;9.902;2023-07-13T07:58:22;7.73;;;3.87;;
3997;SDS011;61314;53.444;9.902;2023-07-13T08:00:52;8.13;;;4.40;;
3997;SDS011;61314;53.444;9.902;2023-07-13T08:03:22;7.93;;;4.20;;
3997;SDS011;61314;53.444;9.902;2023-07-13T08:05:55;21.40;;;4.80;;
3997;SDS011;61314;53.444;9.902;2023-07-13T08:08:42;8.80;;;3.67;;
3997;SDS011;61314;53.444;9.902;2023-07-13T08:11:09;9.67;;;4.13;;
3997;SDS011;61314;53.444;9.902;2023-07-13T08:13:40;12.67;;;4.03;;
3997;SDS011;61314;53.444;9.902;2023-07-13T08:16:07;14.87;;;4.90;;
3997;SDS011;61314;53.444;9.902;2023-07-13T08:18:34;6.60;;;3.93;;
3997;SDS011;61314;53.444;9.902;2023-07-13T08:21:04;8.90;;;4.37;;
3997;SDS011;61314;53.444;9.902;2023-07-13T08:23:32;8.90;;;3.40;;
3997;SDS011;61314;53.444;9.902;2023-07-13T08:25:59;11.20;;;3.83;;
3997;SDS011;61314;53.444;9.902;2023-07-13T08:28:30;16.83;;;3.97;;
3997;SDS011;61314;53.444;9.902;2023-07-13T08:31:05;10.90;;;4.30;;
3997;SDS011;61314;53.444;9.902;2023-07-13T08:33:34;10.10;;;3.90;;
3997;SDS011;61314;53.444;9.902;2023-07-13T08:36:01;8.27;;;3.23;;
3997;SDS011;61314;53.444;9.902;2023-07-13T08:38:29;12.23;;;3.60;;
3997;SDS011;61314;53.444;9.902;2023-07-13T08:40:56;8.27;;;3.90;;
3997;SDS011;61314;53.444;9.902;2023-07-13T08:43:27;5.00;;;2.93;;
3997;SDS011;61314;53.444;9.902;2023-07-13T08:45:57;10.43;;;3.87;;
3997;SDS011;61314;53.444;9.902;2023-07-13T08:48:28;13.43;;;4.20;;
3997;SDS011;61314;53.444;9.902;2023-07-13T08:50:57;7.60;;;3.93;;
3997;SDS011;61314;53.444;9.902;2023-07-13T08:53:30;9.67;;;4.03;;
3997;SDS011;61314;53.444;9.902;2023-07-13T08:55:59;11.03;;;3.77;;
3997;SDS011;61314;53.444;9.902;2023-07-13T08:58:26;6.60;;;3.67;;
3997;SDS011;61314;53.444;9.902;2023-07-13T09:01:15;13.73;;;4.50;;
3997;SDS011;61314;53.444;9.902;2023-07-13T09:03:53;8.67;;;4.20;;
3997;SDS011;61314;53.444;9.902;2023-07-13T09:06:27;14.27;;;4.23;;
3997;SDS011;61314;53.444;9.902;2023-07-13T09:11:44;9.77;;;4.53;;
3997;SDS011;61314;53.444;9.902;2023-07-13T09:14:23;8.80;;;3.17;;
3997;SDS011;61314;53.444;9.902;2023-07-13T09:16:53;11.50;;;4.53;;
3997;SDS011;61314;53.444;9.902;2023-07-13T09:19:26;7.73;;;4.63;;
3997;SDS011;61314;53.444;9.902;2023-07-13T09:21:54;7.73;;;4.43;;
3997;SDS011;61314;53.444;9.902;2023-07-13T09:24:35;3.70;;;3.40;;
3997;SDS011;61314;53.444;9.902;2023-07-13T09:27:09;7.83;;;4.43;;
3997;SDS011;61314;53.444;9.902;2023-07-13T09:29:39;7.90;;;3.77;;
3997;SDS011;61314;53.444;9.902;2023-07-13T09:32:09;11.23;;;4.33;;
3997;SDS011;61314;53.444;9.902;2023-07-13T09:34:37;10.60;;;3.50;;
3997;SDS011;61314;53.444;9.902;2023-07-13T09:37:04;10.97;;;4.33;;
3997;SDS011;61314;53.444;9.902;2023-07-13T09:39:39;7.23;;;3.80;;
3997;SDS011;61314;53.444;9.902;2023-07-13T09:42:12;12.23;;;5.30;;
3997;SDS011;61314;53.444;9.902;2023-07-13T09:44:55;7.40;;;3.90;;
3997;SDS011;61314;53.444;9.902;2023-07-13T09:47:24;11.70;;;5.20;;
3997;SDS011;61314;53.444;9.902;2023-07-13T09:49:55;5.57;;;3.40;;
3997;SDS011;61314;53.444;9.902;2023-07-13T09:52:26;11.63;;;4.40;;
3997;SDS011;61314;53.444;9.902;2023-07-13T09:54:54;10.50;;;3.43;;
3997;SDS011;61314;53.444;9.902;2023-07-13T09:57:26;7.53;;;3.87;;
3997;SDS011;61314;53.444;9.902;2023-07-13T10:00:20;6.10;;;3.67;;
3997;SDS011;61314;53.444;9.902;2023-07-13T10:02:50;8.03;;;4.10;;
3997;SDS011;61314;53.444;9.902;2023-07-13T10:05:24;7.43;;;3.30;;
3997;SDS011;61314;53.444;9.902;2023-07-13T10:07:51;9.60;;;4.10;;
3997;SDS011;61314;53.444;9.902;2023-07-13T10:10:20;3.73;;;2.93;;
3997;SDS011;61314;53.444;9.902;2023-07-13T10:12:49;5.07;;;3.47;;
3997;SDS011;61314;53.444;9.902;2023-07-13T10:15:18;7.93;;;3.73;;
3997;SDS011;61314;53.444;9.902;2023-07-13T10:17:50;7.53;;;3.23;;
3997;SDS011;61314;53.444;9.902;2023-07-13T10:20:17;9.60;;;3.30;;
3997;SDS011;61314;53.444;9.902;2023-07-13T10:22:59;4.90;;;2.60;;
3997;SDS011;61314;53.444;9.902;2023-07-13T10:25:28;3.43;;;3.03;;
3997;SDS011;61314;53.444;9.902;2023-07-13T10:28:39;3.73;;;3.00;;
3997;SDS011;61314;53.444;9.902;2023-07-13T10:30:47;9.13;;;3.20;;
3997;SDS011;61314;53.444;9.902;2023-07-13T10:33:16;5.23;;;3.30;;
3997;SDS011;61314;53.444;9.902;2023-07-13T10:35:43;6.30;;;3.07;;
3997;SDS011;61314;53.444;9.902;2023-07-13T10:38:13;4.83;;;2.60;;
3997;SDS011;61314;53.444;9.902;2023-07-13T10:40:47;5.20;;;3.20;;
3997;SDS011;61314;53.444;9.902;2023-07-13T10:43:17;5.20;;;2.97;;
3997;SDS011;61314;53.444;9.902;2023-07-13T10:45:46;3.37;;;2.60;;
3997;SDS011;61314;53.444;9.902;2023-07-13T10:48:16;4.40;;;2.53;;
3997;SDS011;61314;53.444;9.902;2023-07-13T10:50:44;5.30;;;2.30;;
3997;SDS011;61314;53.444;9.902;2023-07-13T10:53:22;3.70;;;2.47;;
3997;SDS011;61314;53.444;9.902;2023-07-13T10:55:56;8.03;;;2.60;;
3997;SDS011;61314;53.444;9.902;2023-07-13T11:03:33;5.30;;;2.00;;
3997;SDS011;61314;53.444;9.902;2023-07-13T11:08:33;3.73;;;2.30;;
3997;SDS011;61314;53.444;9.902;2023-07-13T11:11:03;5.67;;;2.53;;
3997;SDS011;61314;53.444;9.902;2023-07-13T11:13:39;5.13;;;2.50;;
3997;SDS011;61314;53.444;9.902;2023-07-13T11:21:31;6.57;;;2.73;;
3997;SDS011;61314;53.444;9.902;2023-07-13T11:24:14;5.20;;;2.50;;
3997;SDS011;61314;53.444;9.902;2023-07-13T11:29:26;3.00;;;1.83;;
3997;SDS011;61314;53.444;9.902;2023-07-13T11:32:00;4.67;;;1.87;;
3997;SDS011;61314;53.444;9.902;2023-07-13T11:34:31;2.83;;;2.00;;
3997;SDS011;61314;53.444;9.902;2023-07-13T11:37:00;5.10;;;2.50;;
3997;SDS011;61314;53.444;9.902;2023-07-13T11:39:31;4.00;;;1.90;;
3997;SDS011;61314;53.444;9.902;2023-07-13T11:42:00;1.97;;;1.73;;
3997;SDS011;61314;53.444;9.902;2023-07-13T11:44:30;2.73;;;1.87;;
3997;SDS011;61314;53.444;9.902;2023-07-13T11:46:57;4.07;;;1.97;;
3997;SDS011;61314;53.444;9.902;2023-07-13T11:49:31;4.80;;;2.10;;
3997;SDS011;61314;53.444;9.902;2023-07-13T11:51:59;4.53;;;2.77;;
3997;SDS011;61314;53.444;9.902;2023-07-13T11:54:27;4.00;;;1.87;;
3997;SDS011;61314;53.444;9.902;2023-07-13T11:56:56;4.40;;;1.70;;
3997;SDS011;61314;53.444;9.902;2023-07-13T11:59:26;5.90;;;2.37;;
3997;SDS011;61314;53.444;9.902;2023-07-13T12:01:54;4.80;;;2.87;;
3997;SDS011;61314;53.444;9.902;2023-07-13T12:04:26;7.73;;;1.90;;
3997;SDS011;61314;53.444;9.902;2023-07-13T12:06:58;4.90;;;2.00;;
3997;SDS011;61314;53.444;9.902;2023-07-13T12:09:30;4.83;;;2.30;;
3997;SDS011;61314;53.444;9.902;2023-07-13T12:11:57;3.10;;;2.33;;
3997;SDS011;61314;53.444;9.902;2023-07-13T12:14:27;6.67;;;2.13;;
3997;SDS011;61314;53.444;9.902;2023-07-13T12:16:55;3.30;;;1.90;;
3997;SDS011;61314;53.444;9.902;2023-07-13T12:19:23;3.20;;;2.30;;
3997;SDS011;61314;53.444;9.902;2023-07-13T12:21:52;3.20;;;1.53;;
3997;SDS011;61314;53.444;9.902;2023-07-13T12:24:20;3.27;;;1.40;;
3997;SDS011;61314;53.444;9.902;2023-07-13T12:26:58;2.00;;;1.60;;
3997;SDS011;61314;53.444;9.902;2023-07-13T12:29:27;5.43;;;1.50;;
3997;SDS011;61314;53.444;9.902;2023-07-13T12:31:54;1.40;;;1.17;;
3997;SDS011;61314;53.444;9.902;2023-07-13T12:34:23;5.67;;;1.40;;
3997;SDS011;61314;53.444;9.902;2023-07-13T12:36:55;7.13;;;1.33;;
3997;SDS011;61314;53.444;9.902;2023-07-13T12:41:50;2.33;;;1.60;;
3997;SDS011;61314;53.444;9.902;2023-07-13T12:44:19;1.70;;;1.23;;
3997;SDS011;61314;53.444;9.902;2023-07-13T12:46:52;3.70;;;1.73;;
3997;SDS011;61314;53.444;9.902;2023-07-13T12:49:22;4.60;;;1.80;;
3997;SDS011;61314;53.444;9.902;2023-07-13T12:51:50;1.90;;;1.70;;
3997;SDS011;61314;53.444;9.902;2023-07-13T12:54:18;4.40;;;1.87;;
3997;SDS011;61314;53.444;9.902;2023-07-13T12:56:48;2.10;;;1.90;;
3997;SDS011;61314;53.444;9.902;2023-07-13T12:59:20;2.90;;;1.63;;
3997;SDS011;61314;53.444;9.902;2023-07-13T13:01:48;3.30;;;2.27;;
3997;SDS011;61314;53.444;9.902;2023-07-13T13:04:16;3.40;;;1.93;;
3997;SDS011;61314;53.444;9.902;2023-07-13T13:06:48;2.50;;;1.60;;
3997;SDS011;61314;53.444;9.902;2023-07-13T13:09:16;1.90;;;1.70;;
3997;SDS011;61314;53.444;9.902;2023-07-13T13:11:44;2.00;;;1.40;;
3997;SDS011;61314;53.444;9.902;2023-07-13T13:14:11;1.57;;;1.30;;
3997;SDS011;61314;53.444;9.902;2023-07-13T13:16:46;2.93;;;1.70;;
3997;SDS011;61314;53.444;9.902;2023-07-13T13:19:17;2.33;;;2.00;;
3997;SDS011;61314;53.444;9.902;2023-07-13T13:21:45;7.40;;;2.60;;
3997;SDS011;61314;53.444;9.902;2023-07-13T13:24:13;2.70;;;1.60;;
3997;SDS011;61314;53.444;9.902;2023-07-13T13:26:41;1.83;;;1.73;;
3997;SDS011;61314;53.444;9.902;2023-07-13T13:29:13;3.30;;;1.50;;
3997;SDS011;61314;53.444;9.902;2023-07-13T13:31:41;1.77;;;1.60;;
3997;SDS011;61314;53.444;9.902;2023-07-13T13:34:13;2.10;;;1.63;;
3997;SDS011;61314;53.444;9.902;2023-07-13T13:36:40;2.77;;;1.80;;
3997;SDS011;61314;53.444;9.902;2023-07-13T13:39:53;1.70;;;1.60;;
3997;SDS011;61314;53.444;9.902;2023-07-13T13:41:55;1.90;;;1.70;;
3997;SDS011;61314;53.444;9.902;2023-07-13T13:44:22;2.23;;;1.83;;
3997;SDS011;61314;53.444;9.902;2023-07-13T13:46:51;3.43;;;1.60;;
3997;SDS011;61314;53.444;9.902;2023-07-13T13:49:23;9.70;;;2.20;;
3997;SDS011;61314;53.444;9.902;2023-07-13T13:51:51;3.00;;;1.90;;
3997;SDS011;61314;53.444;9.902;2023-07-13T13:54:19;3.17;;;2.20;;
3997;SDS011;61314;53.444;9.902;2023-07-13T13:56:47;3.20;;;2.17;;
3997;SDS011;61314;53.444;9.902;2023-07-13T13:59:14;1.83;;;1.73;;
3997;SDS011;61314;53.444;9.902;2023-07-13T14:01:42;5.33;;;2.00;;
3997;SDS011;61314;53.444;9.902;2023-07-13T14:04:13;3.80;;;2.10;;
3997;SDS011;61314;53.444;9.902;2023-07-13T14:06:41;4.33;;;2.20;;
3997;SDS011;61314;53.444;9.902;2023-07-13T14:09:10;4.60;;;1.77;;
3997;SDS011;61314;53.444;9.902;2023-07-13T14:11:37;3.93;;;2.20;;
3997;SDS011;61314;53.444;9.902;2023-07-13T14:14:05;3.10;;;2.00;;
3997;SDS011;61314;53.444;9.902;2023-07-13T14:16:32;2.30;;;2.10;;
3997;SDS011;61314;53.444;9.902;2023-07-13T14:19:00;2.90;;;1.93;;
3997;SDS011;61314;53.444;9.902;2023-07-13T14:21:28;2.53;;;1.57;;
3997;SDS011;61314;53.444;9.902;2023-07-13T14:23:55;2.57;;;2.10;;
3997;SDS011;61314;53.444;9.902;2023-07-13T14:26:23;3.50;;;1.60;;
3997;SDS011;61314;53.444;9.902;2023-07-13T14:28:51;12.17;;;2.33;;
3997;SDS011;61314;53.444;9.902;2023-07-13T14:31:21;3.13;;;2.20;;
3997;SDS011;61314;53.444;9.902;2023-07-13T14:33:54;2.07;;;1.80;;
3997;SDS011;61314;53.444;9.902;2023-07-13T14:38:48;2.30;;;2.10;;
3997;SDS011;61314;53.444;9.902;2023-07-13T14:41:15;5.40;;;2.20;;
3997;SDS011;61314;53.444;9.902;2023-07-13T14:43:42;1.93;;;1.70;;
3997;SDS011;61314;53.444;9.902;2023-07-13T14:46:29;3.27;;;2.10;;
3997;SDS011;61314;53.444;9.902;2023-07-13T14:49:02;3.07;;;1.90;;
3997;SDS011;61314;53.444;9.902;2023-07-13T14:51:30;3.00;;;2.40;;
3997;SDS011;61314;53.444;9.902;2023-07-13T14:53:57;3.30;;;2.80;;
3997;SDS011;61314;53.444;9.902;2023-07-13T14:56:24;5.10;;;2.60;;
3997;SDS011;61314;53.444;9.902;2023-07-13T14:58:51;3.17;;;2.73;;
3997;SDS011;61314;53.444;9.902;2023-07-13T15:01:19;3.17;;;2.10;;
3997;SDS011;61314;53.444;9.902;2023-07-13T15:03:47;2.90;;;2.23;;
3997;SDS011;61314;53.444;9.902;2023-07-13T15:06:15;3.30;;;2.77;;
3997;SDS011;61314;53.444;9.902;2023-07-13T15:08:43;2.40;;;2.23;;
3997;SDS011;61314;53.444;9.902;2023-07-13T15:11:10;3.53;;;2.40;;
3997;SDS011;61314;53.444;9.902;2023-07-13T15:13:40;5.07;;;2.80;;
3997;SDS011;61314;53.444;9.902;2023-07-13T15:16:14;8.00;;;2.80;;
3997;SDS011;61314;53.444;9.902;2023-07-13T15:18:43;4.43;;;2.43;;
3997;SDS011;61314;53.444;9.902;2023-07-13T15:21:11;3.13;;;2.47;;
3997;SDS011;61314;53.444;9.902;2023-07-13T15:23:40;4.83;;;2.60;;
3997;SDS011;61314;53.444;9.902;2023-07-13T15:26:14;3.80;;;2.80;;
3997;SDS011;61314;53.444;9.902;2023-07-13T15:28:44;3.53;;;2.20;;
3997;SDS011;61314;53.444;9.902;2023-07-13T15:31:19;2.00;;;1.90;;
3997;SDS011;61314;53.444;9.902;2023-07-13T15:33:46;3.60;;;2.00;;